Latest Weather Observations for St Kilda Harbour RMYS

IDV60901

Issued at 12:41 am EST Monday 10 August 2020 (issued every 10 minutes, with the page automatically refreshed every 10 minutes)

About weather observations | Map of Melbourne area stations | Latest observations for Melbourne area | Other Formats
Station Details ID: 086220 Name: ST KILDA HARBOUR - RMYS Lat: -37.86 Lon: 144.96 Height: 6.4 m
Data from the previous 72 hours. | See also: Recent months at St Kilda Harbour RMYS
Date/Time
EST
Temp
°C
App
Temp
°C
Dew
Point
°C
Rel
Hum
%
Delta-T
°C
Wind Press
QNH
hPa
Press
MSL
hPa
Rain since
9am
mm
Dir  Spd
km/h
Gust
km/h
Spd
kts
Gust
kts
10/12:30am - - - - - ESE 9 15 5 8 - - -
10/12:00am - - - - - SE 13 20 7 11 - - -
 
Date/Time
EST
Temp
°C
App
Temp
°C
Dew
Point
°C
Rel
Hum
%
Delta-T
°C
Wind Press
QNH
hPa
Press
MSL
hPa
Rain since
9am
mm
Dir  Spd
km/h
Gust
km/h
Spd
kts
Gust
kts
09/11:30pm - - - - - SSE 20 26 11 14 - - -
09/11:00pm - - - - - SE 17 22 9 12 - - -
09/10:30pm - - - - - SE 13 17 7 9 - - -
09/10:00pm - - - - - ESE 13 17 7 9 - - -
09/09:30pm - - - - - SE 13 17 7 9 - - -
09/09:00pm - - - - - SE 13 19 7 10 - - -
09/08:30pm - - - - - SE 19 22 10 12 - - -
09/08:00pm - - - - - SE 19 26 10 14 - - -
09/07:30pm - - - - - SSE 22 32 12 17 - - -
09/07:00pm - - - - - SE 22 32 12 17 - - -
09/06:30pm - - - - - SE 20 28 11 15 - - -
09/06:00pm - - - - - SE 24 35 13 19 - - -
09/05:30pm - - - - - SE 22 33 12 18 - - -
09/05:00pm - - - - - SE 22 32 12 17 - - -
09/04:30pm - - - - - SE 22 32 12 17 - - -
09/04:00pm - - - - - SE 22 32 12 17 - - -
09/03:30pm - - - - - ESE 20 32 11 17 - - -
09/03:00pm - - - - - ESE 24 37 13 20 - - -
09/02:30pm - - - - - ESE 22 33 12 18 - - -
09/02:00pm - - - - - SE 22 33 12 18 - - -
09/01:30pm - - - - - SE 28 35 15 19 - - -
09/01:00pm - - - - - SE 30 43 16 23 - - -
09/12:30pm - - - - - SE 24 37 13 20 - - -
09/12:00pm - - - - - SE 26 41 14 22 - - -
09/11:30am - - - - - SE 30 37 16 20 - - -
09/11:00am - - - - - ESE 30 48 16 26 - - -
09/10:30am - - - - - SE 24 37 13 20 - - -
09/10:00am - - - - - SE 24 33 13 18 - - -
09/09:30am - - - - - SSE 19 28 10 15 - - -
09/09:00am - - - - - SSE 19 26 10 14 - - -
09/08:30am - - - - - SE 17 24 9 13 - - -
09/08:00am - - - - - SSE 22 26 12 14 - - -
09/07:30am - - - - - SE 19 24 10 13 - - -
09/07:00am - - - - - SE 22 28 12 15 - - -
09/06:30am - - - - - SE 24 33 13 18 - - -
09/06:00am - - - - - SE 17 26 9 14 - - -
09/05:30am - - - - - SSE 19 22 10 12 - - -
09/05:00am - - - - - SSE 22 28 12 15 - - -
09/04:30am - - - - - SE 20 30 11 16 - - -
09/04:00am - - - - - SE 20 28 11 15 - - -
09/03:30am - - - - - SE 20 28 11 15 - - -
09/03:00am - - - - - SE 20 28 11 15 - - -
09/02:30am - - - - - SSE 22 32 12 17 - - -
09/02:00am - - - - - SSE 22 30 12 16 - - -
09/01:30am - - - - - SE 24 33 13 18 - - -
09/01:00am - - - - - SE 26 35 14 19 - - -
09/12:30am - - - - - SSE 19 30 10 16 - - -
09/12:00am - - - - - SE 17 26 9 14 - - -
 
Date/Time
EST
Temp
°C
App
Temp
°C
Dew
Point
°C
Rel
Hum
%
Delta-T
°C
Wind Press
QNH
hPa
Press
MSL
hPa
Rain since
9am
mm
Dir  Spd
km/h
Gust
km/h
Spd
kts
Gust
kts
08/11:30pm - - - - - SE 22 32 12 17 - - -
08/11:00pm - - - - - SE 26 39 14 21 - - -
08/10:30pm - - - - - ESE 28 39 15 21 - - -
08/10:00pm - - - - - ESE 28 41 15 22 - - -
08/09:30pm - - - - - ESE 28 39 15 21 - - -
08/09:00pm - - - - - ESE 26 37 14 20 - - -
08/08:30pm - - - - - ESE 32 44 17 24 - - -
08/08:00pm - - - - - ESE 28 41 15 22 - - -
08/07:30pm - - - - - ESE 24 39 13 21 - - -
08/07:00pm - - - - - ESE 30 39 16 21 - - -
08/06:35pm - - - - - ESE 30 50 16 27 - - -
08/06:30pm - - - - - ESE 30 39 16 21 - - -
08/06:00pm - - - - - ESE 26 39 14 21 - - -
08/05:30pm - - - - - ESE 24 39 13 21 - - -
08/05:00pm - - - - - ESE 24 39 13 21 - - -
08/04:30pm - - - - - ESE 26 43 14 23 - - -
08/04:00pm - - - - - ESE 26 37 14 20 - - -
08/03:30pm - - - - - ESE 30 43 16 23 - - -
08/03:00pm - - - - - ESE 24 33 13 18 - - -
08/02:30pm - - - - - ESE 26 37 14 20 - - -
08/02:00pm - - - - - ESE 28 39 15 21 - - -
08/01:30pm - - - - - ESE 22 37 12 20 - - -
08/01:00pm - - - - - ESE 22 30 12 16 - - -
08/12:30pm - - - - - ESE 22 32 12 17 - - -
08/12:00pm - - - - - ESE 22 35 12 19 - - -
08/11:30am - - - - - ESE 24 39 13 21 - - -
08/11:00am - - - - - ESE 22 37 12 20 - - -
08/10:30am - - - - - ESE 24 33 13 18 - - -
08/10:00am - - - - - ESE 22 39 12 21 - - -
08/09:30am - - - - - ESE 22 37 12 20 - - -
08/09:00am - - - - - ESE 22 32 12 17 - - -
08/08:30am - - - - - ESE 24 33 13 18 - - -
08/08:00am - - - - - ESE 24 33 13 18 - - -
08/07:30am - - - - - ESE 24 35 13 19 - - -
08/07:00am - - - - - ESE 22 33 12 18 - - -
08/06:30am - - - - - ESE 28 37 15 20 - - -
08/06:00am - - - - - ESE 26 37 14 20 - - -
08/05:30am - - - - - ESE 24 35 13 19 - - -
08/05:00am - - - - - ESE 26 35 14 19 - - -
08/04:30am - - - - - ESE 24 35 13 19 - - -
08/04:00am - - - - - ESE 22 33 12 18 - - -
08/03:30am - - - - - ESE 24 37 13 20 - - -
08/03:00am - - - - - ESE 26 39 14 21 - - -
08/02:30am - - - - - ESE 26 41 14 22 - - -
08/02:00am - - - - - ESE 28 37 15 20 - - -
08/01:30am - - - - - ESE 26 37 14 20 - - -
08/01:00am - - - - - ESE 26 37 14 20 - - -
08/12:30am - - - - - ESE 24 39 13 21 - - -
08/12:00am - - - - - ESE 22 32 12 17 - - -
 
Date/Time
EST
Temp
°C
App
Temp
°C
Dew
Point
°C
Rel
Hum
%
Delta-T
°C
Wind Press
QNH
hPa
Press
MSL
hPa
Rain since
9am
mm
Dir  Spd
km/h
Gust
km/h
Spd
kts
Gust
kts
07/11:30pm - - - - - ESE 22 32 12 17 - - -
07/11:00pm - - - - - ESE 24 33 13 18 - - -
07/10:30pm - - - - - ESE 24 35 13 19 - - -
07/10:00pm - - - - - ESE 20 30 11 16 - - -
07/09:30pm - - - - - SE 20 26 11 14 - - -
07/09:00pm - - - - - SE 20 24 11 13 - - -
07/08:30pm - - - - - SE 19 24 10 13 - - -
07/08:00pm - - - - - SE 20 26 11 14 - - -
07/07:30pm - - - - - ESE 24 37 13 20 - - -
07/07:00pm - - - - - ESE 28 39 15 21 - - -
07/06:30pm - - - - - ESE 22 33 12 18 - - -
07/06:00pm - - - - - SE 26 37 14 20 - - -
07/05:30pm - - - - - ESE 32 46 17 25 - - -
07/05:00pm - - - - - ESE 32 46 17 25 - - -
07/04:30pm - - - - - ESE 33 50 18 27 - - -
07/04:02pm - - - - - ESE 30 50 16 27 - - -
07/04:00pm - - - - - ESE 30 43 16 23 - - -
07/03:30pm - - - - - ESE 32 46 17 25 - - -
07/03:00pm - - - - - ESE 28 41 15 22 - - -
07/02:30pm - - - - - ESE 32 44 17 24 - - -
07/02:00pm - - - - - ESE 33 50 18 27 - - -
07/01:30pm - - - - - ESE 32 43 17 23 - - -
07/01:15pm - - - - - ESE 32 50 17 27 - - -
07/01:00pm - - - - - ESE 30 41 16 22 - - -
07/12:30pm - - - - - ESE 20 35 11 19 - - -
07/12:00pm - - - - - ESE 26 41 14 22 - - -
07/11:30am - - - - - ESE 22 35 12 19 - - -
07/11:00am - - - - - ESE 17 28 9 15 - - -
07/10:30am - - - - - NW 2 4 1 2 - - -
07/10:00am - - - - - N 2 6 1 3 - - -
07/09:30am - - - - - N 4 6 2 3 - - -
07/09:00am - - - - - NNW 4 7 2 4 - - -
07/08:30am - - - - - NNE 4 6 2 3 - - -
07/08:00am - - - - - N 6 7 3 4 - - -
07/07:30am - - - - - SE 7 11 4 6 - - -
07/07:00am - - - - - NNW 2 6 1 3 - - -
07/06:30am - - - - - N 4 7 2 4 - - -
07/06:00am - - - - - N 2 4 1 2 - - -
07/05:30am - - - - - SE 6 7 3 4 - - -
07/05:00am - - - - - E 2 4 1 2 - - -
07/04:30am - - - - - NNE 2 2 1 1 - - -
07/04:00am - - - - - SE 6 7 3 4 - - -
07/03:30am - - - - - E 2 6 1 3 - - -
07/03:00am - - - - - E 6 7 3 4 - - -
07/02:30am - - - - - E 6 9 3 5 - - -
07/02:00am - - - - - NE 6 9 3 5 - - -
07/01:30am - - - - - E 11 17 6 9 - - -
07/01:00am - - - - - SE 15 22 8 12 - - -

Latest Capital City Observations: Canberra | Sydney | Melbourne | Brisbane | Adelaide | Perth | Hobart | Darwin

Other formats

Comma delimited format used in spreadsheet applications
http://www.bom.gov.au/fwo/IDV60901/IDV60901.95864.axf

JavaScript Object Notation format (JSON) in row-major order
http://www.bom.gov.au/fwo/IDV60901/IDV60901.95864.json

Data quality

Most of these data are generated automatically and are frequently updated. Quality checks on data are not normally performed. It is possible for incorrect values to appear. Refer to information at About Latest Weather Observations and please check the disclaimer before using these data.